Time;durP1;ratioP1;P1;durP2;ratioP2;P2;SDS_P1;SDS_P2;PMS_P1;PMS_P2;Temp;Humidity;BMP_temperature;BMP_pressure;BME280_temperature;BME280_humidity;BME280_pressure;Samples;Min_cycle;Max_cycle;Signal;HPM_P1;HPM_P2
2022/10/28 00:01:41;;;;;;;;;;;;;;;14.38;100.00;98881.63;5058647;28;19980;-64
2022/10/28 00:04:07;;;;;;;;;;;;;;;14.39;100.00;98877.88;5058483;28;19988;-66
2022/10/28 00:06:35;;;;;;;;;;;;;;;14.05;100.00;98872.84;5055090;28;20000;-64
2022/10/28 00:09:02;;;;;;;;;;;;;;;13.77;100.00;98865.19;5055019;28;19925;-63
2022/10/28 00:11:29;;;;;;;;;;;;;;;13.85;100.00;98871.94;5058441;28;19932;-65
2022/10/28 00:13:56;;;;;;;;;;;;;;;13.92;100.00;98865.28;5058523;28;20354;-64
2022/10/28 00:16:25;;;;;;;;;;;;;;;13.73;100.00;98866.78;5055910;28;20041;-65
2022/10/28 00:18:52;;;;;;;;;;;;;;;13.84;100.00;98856.91;5054925;28;19989;-64
2022/10/28 00:21:20;;;;;;;;;;;;;;;13.97;100.00;98867.97;5059786;28;19914;-64
2022/10/28 00:23:46;;;;;;;;;;;;;;;14.01;100.00;98865.59;5061513;28;19967;-64
2022/10/28 00:26:13;;;;;;;;;;;;;;;13.92;100.00;98861.78;5061702;28;19995;-64
2022/10/28 00:28:40;;;;;;;;;;;;;;;14.00;100.00;98864.78;5058524;28;19936;-65
2022/10/28 00:31:07;;;;;;;;;;;;;;;14.10;100.00;98871.25;5057905;28;19957;-63
2022/10/28 00:33:35;;;;;;;;;;;;;;;14.12;100.00;98866.44;5063594;27;19999;-64
2022/10/28 00:36:09;;;;;;;;;;;;;;;14.08;100.00;98858.88;5060720;28;19992;-64
2022/10/28 00:38:35;;;;;;;;;;;;;;;14.08;100.00;98861.56;5047892;28;20090;-63
2022/10/28 00:41:02;;;;;;;;;;;;;;;14.16;100.00;98868.34;5056378;28;19928;-63
2022/10/28 00:43:36;;;;;;;;;;;;;;;14.16;100.00;98868.34;5058307;28;19992;-64
2022/10/28 00:46:02;;;;;;;;;;;;;;;14.14;100.00;98865.13;5058902;28;19925;-64
2022/10/28 00:48:29;;;;;;;;;;;;;;;14.12;100.00;98863.72;5054566;28;19932;-64
2022/10/28 00:50:57;;;;;;;;;;;;;;;14.13;100.00;98860.00;5054547;28;19988;-63
2022/10/28 00:53:24;;;;;;;;;;;;;;;14.12;100.00;98861.88;5055334;28;19964;-65
2022/10/28 00:55:51;;;;;;;;;;;;;;;14.13;100.00;98866.19;5057702;28;19992;-65
2022/10/28 00:58:18;;;;;;;;;;;;;;;14.12;100.00;98861.88;5056078;28;20016;-65
2022/10/28 01:00:45;;;;;;;;;;;;;;;14.18;100.00;98860.00;5054135;28;19971;-64
2022/10/28 01:03:11;;;;;;;;;;;;;;;14.18;100.00;98860.00;5054892;28;20004;-64
2022/10/28 01:05:40;;;;;;;;;;;;;;;14.11;100.00;98862.13;5057508;28;19924;-65
2022/10/28 01:08:08;;;;;;;;;;;;;;;14.09;100.00;98851.66;5057265;28;19985;-65
2022/10/28 01:10:51;;;;;;;;;;;;;;;14.05;100.00;98854.03;5057071;28;20025;-66
2022/10/28 01:13:23;;;;;;;;;;;;;;;14.08;100.00;98858.88;5059000;28;19984;-64
2022/10/28 01:15:53;;;;;;;;;;;;;;;14.02;100.00;98846.50;5061138;28;19996;-66
2022/10/28 01:18:24;;;;;;;;;;;;;;;14.05;100.00;98855.91;5059118;28;19992;-64
2022/10/28 01:21:09;;;;;;;;;;;;;;;14.03;100.00;98853.50;5058022;28;19953;-65
2022/10/28 01:23:44;;;;;;;;;;;;;;;14.02;100.00;98848.38;5045742;28;20374;-65
2022/10/28 01:26:29;;;;;;;;;;;;;;;14.04;100.00;98860.50;5060448;28;19960;-64
2022/10/28 01:29:10;;;;;;;;;;;;;;;13.96;100.00;98860.97;5057477;28;19931;-66
2022/10/28 01:31:42;;;;;;;;;;;;;;;13.88;100.00;98863.38;5052023;28;19968;-65
2022/10/28 01:34:12;;;;;;;;;;;;;;;13.87;100.00;98849.13;5056329;28;19925;-64
2022/10/28 01:36:40;;;;;;;;;;;;;;;13.90;100.00;98853.97;5060429;28;19960;-64
2022/10/28 01:39:12;;;;;;;;;;;;;;;13.74;100.00;98854.97;5060400;28;19996;-65
2022/10/28 01:41:43;;;;;;;;;;;;;;;13.81;100.00;98862.78;5057079;28;20411;-65
2022/10/28 01:44:14;;;;;;;;;;;;;;;13.87;100.00;98859.88;5057271;28;19992;-64
2022/10/28 01:46:47;;;;;;;;;;;;;;;13.93;100.00;98858.81;5060718;28;19924;-65
2022/10/28 01:49:16;;;;;;;;;;;;;;;14.00;100.00;98861.28;5059413;28;20500;-64
2022/10/28 01:51:45;;;;;;;;;;;;;;;13.98;100.00;98855.38;5057744;28;19925;-64
2022/10/28 01:54:14;;;;;;;;;;;;;;;13.98;100.00;98850.81;5056189;28;20028;-64
2022/10/28 01:56:42;;;;;;;;;;;;;;;13.90;100.00;98845.09;5056840;28;19980;-65
2022/10/28 01:59:11;;;;;;;;;;;;;;;13.93;100.00;98853.44;5057205;28;20005;-64
2022/10/28 02:01:37;;;;;;;;;;;;;;;13.96;100.00;98855.63;5060225;28;19925;-65
2022/10/28 02:04:05;;;;;;;;;;;;;;;14.00;100.00;98863.97;5060066;28;19925;-64
2022/10/28 02:06:33;;;;;;;;;;;;;;;14.02;100.00;98859.13;5048791;28;20424;-64
2022/10/28 02:09:06;;;;;;;;;;;;;;;13.99;100.00;98870.38;5057160;28;19929;-64
2022/10/28 02:11:44;;;;;;;;;;;;;;;13.98;100.00;98864.25;5048993;28;19937;-64
2022/10/28 02:14:17;;;;;;;;;;;;;;;14.01;100.00;98854.84;5057232;28;20015;-64
2022/10/28 02:16:46;;;;;;;;;;;;;;;13.99;100.00;98856.97;5060191;28;19940;-64
2022/10/28 02:19:18;;;;;;;;;;;;;;;13.98;100.00;98858.06;5058982;28;19975;-64
2022/10/28 02:21:50;;;;;;;;;;;;;;;13.91;100.00;98844.84;5055829;28;19925;-64
2022/10/28 02:24:19;;;;;;;;;;;;;;;13.91;100.00;98850.22;5055903;28;20255;-64
2022/10/28 02:26:47;;;;;;;;;;;;;;;13.94;100.00;98854.25;5056740;28;19984;-64
2022/10/28 02:29:15;;;;;;;;;;;;;;;13.95;100.00;98853.22;5057413;28;19981;-64
2022/10/28 02:31:44;;;;;;;;;;;;;;;13.96;100.00;98849.44;5060420;28;19931;-64
2022/10/28 02:34:13;;;;;;;;;;;;;;;13.93;100.00;98844.59;5059242;28;19925;-64
2022/10/28 02:36:44;;;;;;;;;;;;;;;13.93;100.00;98844.59;5056675;28;19993;-63
2022/10/28 02:39:10;;;;;;;;;;;;;;;13.93;100.00;98845.41;5056809;28;19985;-65
2022/10/28 02:41:40;;;;;;;;;;;;;;;13.81;100.00;98844.81;5059739;28;19984;-64
2022/10/28 02:44:17;;;;;;;;;;;;;;;13.41;100.00;98842.69;5059563;28;20000;-64
2022/10/28 02:46:46;;;;;;;;;;;;;;;13.13;100.00;98839.53;5049746;28;19968;-64
2022/10/28 02:49:13;;;;;;;;;;;;;;;13.13;100.00;98845.69;5056858;28;20451;-64
2022/10/28 02:51:44;;;;;;;;;;;;;;;13.09;100.00;98843.81;5059625;28;19988;-64
2022/10/28 02:54:12;;;;;;;;;;;;;;;13.14;100.00;98835.78;5057521;28;19925;-64
2022/10/28 02:56:41;;;;;;;;;;;;;;;13.11;100.00;98834.44;5056197;28;20001;-64
2022/10/28 02:59:09;;;;;;;;;;;;;;;12.98;100.00;98829.47;5056078;28;19996;-63
2022/10/28 03:01:36;;;;;;;;;;;;;;;13.18;100.00;98834.22;5059324;28;20135;-64
2022/10/28 03:04:03;;;;;;;;;;;;;;;13.29;100.00;98835.91;5059213;28;19967;-63
2022/10/28 03:06:30;;;;;;;;;;;;;;;13.41;100.00;98831.97;5056186;28;19929;-63
2022/10/28 03:08:57;;;;;;;;;;;;;;;13.49;100.00;98825.31;5055993;28;19925;-64
2022/10/28 03:11:24;;;;;;;;;;;;;;;13.33;100.00;98837.00;5058368;28;19925;-64
2022/10/28 03:13:50;;;;;;;;;;;;;;;13.30;100.00;98834.84;5059660;28;19956;-64
2022/10/28 03:16:16;;;;;;;;;;;;;;;13.44;100.00;98842.19;5057858;28;19936;-64
2022/10/28 03:18:43;;;;;;;;;;;;;;;13.53;100.00;98834.44;5055658;28;19992;-64
2022/10/28 03:21:09;;;;;;;;;;;;;;;13.58;100.00;98839.84;5055775;28;19925;-64
2022/10/28 03:23:35;;;;;;;;;;;;;;;13.60;100.00;98843.09;5062262;28;19926;-63
2022/10/28 03:26:03;;;;;;;;;;;;;;;13.60;100.00;98843.09;5055549;28;19956;-64
2022/10/28 03:28:29;;;;;;;;;;;;;;;13.57;100.00;98838.22;5058718;28;19924;-65
2022/10/28 03:30:56;;;;;;;;;;;;;;;13.55;100.00;98828.84;5058991;28;19984;-64
2022/10/28 03:33:22;;;;;;;;;;;;;;;13.56;100.00;98833.91;5055377;28;19935;-64
2022/10/28 03:35:48;;;;;;;;;;;;;;;13.59;100.00;98833.41;5055588;28;19984;-64
2022/10/28 03:38:14;;;;;;;;;;;;;;;13.63;100.00;98831.00;5056379;28;19989;-65
2022/10/28 03:40:41;;;;;;;;;;;;;;;13.69;100.00;98830.78;5058846;28;19927;-64
2022/10/28 03:43:08;;;;;;;;;;;;;;;13.64;100.00;98833.44;5058554;28;19983;-65
2022/10/28 03:45:35;;;;;;;;;;;;;;;13.60;100.00;98832.34;5055484;28;19925;-63
2022/10/28 03:48:01;;;;;;;;;;;;;;;13.69;100.00;98830.78;5055421;28;19921;-64
2022/10/28 03:50:27;;;;;;;;;;;;;;;13.69;100.00;98828.09;5058224;28;19952;-64
2022/10/28 03:52:54;;;;;;;;;;;;;;;13.69;100.00;98840.72;5051932;28;19959;-63
2022/10/28 03:55:22;;;;;;;;;;;;;;;13.67;100.00;98838.28;5057230;28;19925;-65
2022/10/28 03:57:48;;;;;;;;;;;;;;;13.67;100.00;98830.25;5058826;28;20434;-63
2022/10/28 04:00:16;;;;;;;;;;;;;;;13.69;100.00;98827.28;5057463;28;19925;-64
2022/10/28 04:02:43;;;;;;;;;;;;;;;13.67;100.00;98827.56;5055122;28;19968;-64
2022/10/28 04:05:09;;;;;;;;;;;;;;;13.58;100.00;98831.81;5055534;28;19972;-65
2022/10/28 04:07:35;;;;;;;;;;;;;;;13.59;100.00;98833.41;5057724;28;19988;-64
2022/10/28 04:10:02;;;;;;;;;;;;;;;13.51;100.00;98829.34;5058734;28;19980;-65
2022/10/28 04:12:28;;;;;;;;;;;;;;;13.49;100.00;98830.69;5055511;28;19932;-64
2022/10/28 04:14:54;;;;;;;;;;;;;;;13.44;100.00;98831.44;5055126;28;19993;-64
2022/10/28 04:17:22;;;;;;;;;;;;;;;13.43;100.00;98837.09;5056810;28;19984;-65
2022/10/28 04:19:48;;;;;;;;;;;;;;;13.26;100.00;98831.84;5058476;28;19968;-64
2022/10/28 04:22:15;;;;;;;;;;;;;;;13.13;100.00;98826.94;5057466;28;19996;-64
2022/10/28 04:24:41;;;;;;;;;;;;;;;13.10;100.00;98837.34;5058256;28;20009;-65
2022/10/28 04:27:07;;;;;;;;;;;;;;;12.99;100.00;98837.25;5058197;28;19988;-64
2022/10/28 04:29:33;;;;;;;;;;;;;;;13.12;100.00;98832.56;5054866;28;19974;-64
2022/10/28 04:32:00;;;;;;;;;;;;;;;13.03;100.00;98836.75;5055028;28;19933;-64
2022/10/28 04:34:27;;;;;;;;;;;;;;;12.81;100.00;98834.94;5057063;28;19984;-64
2022/10/28 04:36:54;;;;;;;;;;;;;;;12.67;100.00;98836.44;5058155;28;19953;-64
2022/10/28 04:39:20;;;;;;;;;;;;;;;12.70;100.00;98841.28;5055721;28;20498;-63
2022/10/28 04:41:46;;;;;;;;;;;;;;;12.57;100.00;98839.00;5054039;28;19925;-64
2022/10/28 04:44:13;;;;;;;;;;;;;;;12.63;100.00;98843.34;5055616;28;19993;-64
2022/10/28 04:46:39;;;;;;;;;;;;;;;12.53;100.00;98843.28;5061057;28;20001;-63
2022/10/28 04:49:05;;;;;;;;;;;;;;;12.55;100.00;98841.13;5060864;28;19960;-64
2022/10/28 04:51:33;;;;;;;;;;;;;;;12.59;100.00;98844.94;5049566;28;19960;-64
2022/10/28 04:53:59;;;;;;;;;;;;;;;12.75;100.00;98844.00;5056197;28;20012;-64
2022/10/28 04:56:26;;;;;;;;;;;;;;;12.80;100.00;98844.06;5059874;28;19924;-64
2022/10/28 04:58:52;;;;;;;;;;;;;;;12.82;100.00;98835.75;5061043;28;19925;-64
2022/10/28 05:01:19;;;;;;;;;;;;;;;12.81;100.00;98840.31;5059045;28;19979;-65
2022/10/28 05:03:45;;;;;;;;;;;;;;;12.75;100.00;98844.00;5057517;28;19926;-64
2022/10/28 05:06:11;;;;;;;;;;;;;;;12.57;100.00;98844.34;5058009;28;19967;-64
2022/10/28 05:08:41;;;;;;;;;;;;;;;12.59;100.00;98849.47;5061061;28;19952;-63
2022/10/28 05:11:08;;;;;;;;;;;;;;;12.45;100.00;98851.75;5061381;28;19955;-63
2022/10/28 05:13:34;;;;;;;;;;;;;;;12.38;100.00;98846.56;5058432;28;20012;-64
2022/10/28 05:16:00;;;;;;;;;;;;;;;12.45;100.00;98847.19;5058984;28;19936;-63
2022/10/28 05:18:27;;;;;;;;;;;;;;;12.51;100.00;98850.72;5062612;28;19940;-63
2022/10/28 05:20:54;;;;;;;;;;;;;;;12.54;100.00;98852.91;5065251;28;19952;-64
2022/10/28 05:23:20;;;;;;;;;;;;;;;12.57;100.00;98856.94;5063588;28;19950;-63
2022/10/28 05:25:48;;;;;;;;;;;;;;;12.65;100.00;98868.03;5062748;28;19980;-63
2022/10/28 05:28:15;;;;;;;;;;;;;;;12.71;100.00;98866.22;5063481;28;19924;-63
2022/10/28 05:30:41;;;;;;;;;;;;;;;12.85;100.00;98868.22;5063281;28;19925;-63
2022/10/28 05:33:09;;;;;;;;;;;;;;;12.75;100.00;98854.72;5060543;28;19982;-64
2022/10/28 05:35:35;;;;;;;;;;;;;;;12.71;100.00;98853.63;5057299;28;19925;-65
2022/10/28 05:38:02;;;;;;;;;;;;;;;12.74;100.00;98857.66;5056979;28;19991;-63
2022/10/28 05:40:28;;;;;;;;;;;;;;;12.81;100.00;98861.75;5060845;28;20000;-64
2022/10/28 05:42:56;;;;;;;;;;;;;;;12.87;100.00;98849.22;5062701;28;19931;-64
2022/10/28 05:45:22;;;;;;;;;;;;;;;12.81;100.00;98860.97;5059314;28;19960;-64
2022/10/28 05:47:48;;;;;;;;;;;;;;;12.79;100.00;98863.88;5057325;28;19964;-64
2022/10/28 05:50:16;;;;;;;;;;;;;;;12.76;100.00;98853.66;5058211;28;19963;-64
2022/10/28 05:52:45;;;;;;;;;;;;;;;12.64;100.00;98842.28;5055479;28;20212;-64
2022/10/28 05:55:11;;;;;;;;;;;;;;;12.50;100.00;98842.97;5057741;28;19931;-64
2022/10/28 05:57:37;;;;;;;;;;;;;;;12.38;100.00;98846.56;5056168;28;19956;-64
2022/10/28 06:00:06;;;;;;;;;;;;;;;12.37;100.00;98844.16;5056765;28;19932;-64
2022/10/28 06:02:32;;;;;;;;;;;;;;;12.24;100.00;98834.66;5055609;28;19953;-64
2022/10/28 06:04:59;;;;;;;;;;;;;;;12.30;100.00;98843.53;5056802;28;19930;-64
2022/10/28 06:07:25;;;;;;;;;;;;;;;12.43;100.00;98845.84;5059110;28;20013;-64
2022/10/28 06:09:51;;;;;;;;;;;;;;;12.54;100.00;98852.91;5060175;28;19954;-64
2022/10/28 06:12:18;;;;;;;;;;;;;;;12.78;100.00;98866.84;5058724;28;19932;-64
2022/10/28 06:14:44;;;;;;;;;;;;;;;12.91;100.00;98864.53;5056811;28;19926;-63
2022/10/28 06:17:12;;;;;;;;;;;;;;;12.91;100.00;98869.88;5056888;28;19981;-64
2022/10/28 06:19:38;;;;;;;;;;;;;;;12.97;100.00;98868.88;5059961;28;19992;-64
2022/10/28 06:22:05;;;;;;;;;;;;;;;12.96;100.00;98880.69;5059356;28;19967;-63
2022/10/28 06:24:31;;;;;;;;;;;;;;;13.00;100.00;98878.28;5059175;28;20020;-63
2022/10/28 06:26:58;;;;;;;;;;;;;;;12.80;100.00;98878.09;5058073;28;19999;-65
2022/10/28 06:29:24;;;;;;;;;;;;;;;12.55;100.00;98878.66;5057358;28;19996;-64
2022/10/28 06:31:50;;;;;;;;;;;;;;;12.47;100.00;98881.78;5056641;28;19964;-65
2022/10/28 06:34:18;;;;;;;;;;;;;;;12.38;100.00;98893.97;5056503;28;19988;-64
2022/10/28 06:36:44;;;;;;;;;;;;;;;12.15;100.00;98888.91;5059863;28;19929;-64
2022/10/28 06:39:11;;;;;;;;;;;;;;;12.10;100.00;98881.59;5059292;28;19925;-64
2022/10/28 06:41:37;;;;;;;;;;;;;;;12.05;100.00;98883.41;5056462;28;19921;-63
2022/10/28 06:44:03;;;;;;;;;;;;;;;12.00;100.00;98878.00;5056467;28;19984;-64
2022/10/28 06:46:30;;;;;;;;;;;;;;;12.03;100.00;98888.22;5059470;28;19929;-64
2022/10/28 06:48:56;;;;;;;;;;;;;;;12.06;100.00;98882.34;5060092;28;19931;-64
2022/10/28 06:51:24;;;;;;;;;;;;;;;12.15;100.00;98899.59;5057455;28;19928;-64
2022/10/28 06:53:51;;;;;;;;;;;;;;;12.26;100.00;98912.06;5053233;28;19988;-64
2022/10/28 06:56:18;;;;;;;;;;;;;;;12.44;100.00;98914.41;5058315;28;20368;-67
2022/10/28 06:58:44;;;;;;;;;;;;;;;12.58;100.00;98920.22;5055996;28;19981;-64
2022/10/28 07:01:10;;;;;;;;;;;;;;;12.65;100.00;98932.38;5056259;28;19998;-64
2022/10/28 07:03:37;;;;;;;;;;;;;;;12.64;100.00;98922.69;5059469;28;19924;-64
2022/10/28 07:06:03;;;;;;;;;;;;;;;12.51;100.00;98915.03;5059130;28;19967;-63
2022/10/28 07:08:31;;;;;;;;;;;;;;;12.49;100.00;98916.34;5055752;28;19925;-64
2022/10/28 07:10:58;;;;;;;;;;;;;;;12.53;100.00;98922.84;5055966;28;19937;-63
2022/10/28 07:13:25;;;;;;;;;;;;;;;12.53;100.00;98933.56;5058235;28;19925;-63
2022/10/28 07:15:52;;;;;;;;;;;;;;;12.42;100.00;98937.97;5059272;28;19985;-63
2022/10/28 07:18:18;;;;;;;;;;;;;;;12.37;100.00;98941.41;5057513;28;19925;-63
2022/10/28 07:20:45;;;;;;;;;;;;;;;12.29;100.00;98943.69;5055726;28;19981;-64
2022/10/28 07:23:11;;;;;;;;;;;;;;;12.48;100.00;98950.38;5062802;28;19964;-64
2022/10/28 07:25:39;;;;;;;;;;;;;;;12.71;100.00;98958.16;5055521;28;20419;-64
2022/10/28 07:28:05;;;;;;;;;;;;;;;12.76;100.00;98960.88;5055415;28;20024;-64
2022/10/28 07:30:32;;;;;;;;;;;;;;;12.81;100.00;98944.84;5058868;28;19996;-64
2022/10/28 07:32:59;;;;;;;;;;;;;;;12.73;100.00;98945.31;5058973;28;19935;-64
2022/10/28 07:35:26;;;;;;;;;;;;;;;12.66;100.00;98947.38;5056056;28;19988;-64
2022/10/28 07:37:52;;;;;;;;;;;;;;;12.54;100.00;98946.69;5055406;28;19925;-64
2022/10/28 07:40:19;;;;;;;;;;;;;;;12.40;100.00;98946.28;5057190;28;19936;-63
2022/10/28 07:42:49;;;;;;;;;;;;;;;12.40;100.00;98932.06;5059118;28;19964;-64
2022/10/28 07:45:16;;;;;;;;;;;;;;;12.40;100.00;98940.09;5057793;28;19924;-64
2022/10/28 07:47:43;;;;;;;;;;;;;;;12.40;100.00;98946.28;5055862;28;19980;-64
2022/10/28 07:50:10;;;;;;;;;;;;;;;12.39;100.00;98943.81;5055574;28;19925;-64
2022/10/28 07:52:36;;;;;;;;;;;;;;;12.42;100.00;98948.69;5054166;28;19989;-64
2022/10/28 07:55:03;;;;;;;;;;;;;;;12.56;100.00;98946.44;5055428;28;20020;-65
2022/10/28 07:57:29;;;;;;;;;;;;;;;12.73;100.00;98956.03;5058426;28;19976;-64
2022/10/28 07:59:57;;;;;;;;;;;;;;;12.79;100.00;98960.38;5059073;28;19992;-63
2022/10/28 08:02:24;;;;;;;;;;;;;;;12.86;100.00;98957.50;5056117;28;20204;-64
2022/10/28 08:04:50;;;;;;;;;;;;;;;12.92;100.00;98964.53;5055324;28;20369;-65
2022/10/28 08:07:17;;;;;;;;;;;;;;;13.00;100.00;98956.03;5056522;28;19931;-64
2022/10/28 08:09:44;;;;;;;;;;;;;;;13.17;100.00;98966.69;5058466;28;20027;-64
2022/10/28 08:12:12;;;;;;;;;;;;;;;13.25;100.00;98966.22;5057775;28;19961;-64
2022/10/28 08:14:39;;;;;;;;;;;;;;;13.25;100.00;98963.53;5055007;28;19931;-64
2022/10/28 08:17:07;;;;;;;;;;;;;;;13.27;100.00;98958.75;5055433;28;19925;-65
2022/10/28 08:19:33;;;;;;;;;;;;;;;13.27;100.00;98948.03;5048850;28;19993;-65
2022/10/28 08:22:01;;;;;;;;;;;;;;;13.26;100.00;98957.13;5058622;28;19932;-64
2022/10/28 08:24:27;;;;;;;;;;;;;;;13.28;100.00;98950.44;5060435;28;19991;-64
2022/10/28 08:26:53;;;;;;;;;;;;;;;13.28;100.00;98944.25;5062275;28;19968;-64
2022/10/28 08:29:20;;;;;;;;;;;;;;;13.29;100.00;98945.88;5060325;28;19996;-65
2022/10/28 08:31:46;;;;;;;;;;;;;;;13.31;100.00;98946.44;5058665;28;20140;-65
2022/10/28 08:34:14;;;;;;;;;;;;;;;13.45;100.00;98955.69;5059126;28;19960;-64
2022/10/28 08:36:40;;;;;;;;;;;;;;;13.41;100.00;98950.03;5061950;28;19924;-64
2022/10/28 08:39:06;;;;;;;;;;;;;;;13.34;100.00;98946.72;5061950;28;19937;-64
2022/10/28 08:41:38;;;;;;;;;;;;;;;13.38;100.00;98945.16;5050759;28;19925;-65
2022/10/28 08:44:20;;;;;;;;;;;;;;;13.40;100.00;98944.94;5058625;28;19925;-65
2022/10/28 08:46:53;;;;;;;;;;;;;;;13.52;100.00;98935.59;5052102;28;19921;-64
2022/10/28 08:49:22;;;;;;;;;;;;;;;13.57;100.00;98926.00;5059880;28;19971;-64
2022/10/28 08:51:50;;;;;;;;;;;;;;;13.66;100.00;98925.25;5062063;28;19988;-64
2022/10/28 08:54:21;;;;;;;;;;;;;;;13.70;100.00;98934.41;5058933;28;19925;-65
2022/10/28 08:56:48;;;;;;;;;;;;;;;13.63;100.00;98925.78;5058119;28;19932;-64
2022/10/28 08:59:18;;;;;;;;;;;;;;;13.76;100.00;98928.00;5059037;28;20000;-64
2022/10/28 09:01:46;;;;;;;;;;;;;;;13.74;100.00;98918.59;5061989;28;19925;-64
2022/10/28 09:04:16;;;;;;;;;;;;;;;13.79;100.00;98908.69;5060772;28;19924;-65
2022/10/28 09:06:44;;;;;;;;;;;;;;;13.78;100.00;98909.75;5058113;28;19925;-63
2022/10/28 09:09:12;;;;;;;;;;;;;;;13.73;100.00;98904.38;5058500;28;19921;-64
2022/10/28 09:11:49;;;;;;;;;;;;;;;13.77;100.00;98913.50;5061421;28;20020;-64
2022/10/28 09:14:29;;;;;;;;;;;;;;;13.82;100.00;98913.56;5060306;28;20011;-64
2022/10/28 09:17:01;;;;;;;;;;;;;;;13.84;100.00;98919.47;5058218;28;19992;-65
2022/10/28 09:19:35;;;;;;;;;;;;;;;13.79;100.00;98927.50;5060337;28;19925;-64
2022/10/28 09:22:09;;;;;;;;;;;;;;;13.90;100.00;98925.66;5061209;28;19925;-64
2022/10/28 09:24:43;;;;;;;;;;;;;;;13.99;100.00;98924.09;5050002;28;19993;-65
2022/10/28 09:27:11;;;;;;;;;;;;;;;14.06;100.00;98916.63;5058141;28;19992;-65
2022/10/28 09:29:44;;;;;;;;;;;;;;;14.03;100.00;98914.47;5061046;28;20027;-65
2022/10/28 09:32:14;;;;;;;;;;;;;;;14.16;100.00;98905.94;5060606;28;19935;-64
2022/10/28 09:34:44;;;;;;;;;;;;;;;14.16;100.00;98902.44;5057567;28;20004;-65
2022/10/28 09:37:13;;;;;;;;;;;;;;;14.17;100.00;98901.38;5058031;28;19988;-65
2022/10/28 09:39:42;;;;;;;;;;;;;;;14.16;100.00;98894.38;5060960;28;19988;-64
2022/10/28 09:42:12;;;;;;;;;;;;;;;14.18;100.00;98893.06;5060782;28;19925;-64
2022/10/28 09:44:41;;;;;;;;;;;;;;;14.22;100.00;98901.41;5057431;28;19952;-64
2022/10/28 09:47:14;;;;;;;;;;;;;;;14.25;100.00;98903.56;5057500;28;19925;-64
2022/10/28 09:49:40;;;;;;;;;;;;;;;14.25;100.00;98898.19;5050307;28;19935;-64
2022/10/28 09:52:13;;;;;;;;;;;;;;;14.30;100.00;98895.50;5056990;28;19931;-64
2022/10/28 09:54:42;;;;;;;;;;;;;;;14.25;100.00;98904.38;5050075;28;20016;-64
2022/10/28 09:57:08;;;;;;;;;;;;;;;14.32;100.00;98904.13;5057241;28;19925;-65
2022/10/28 09:59:35;;;;;;;;;;;;;;;14.39;100.00;98902.06;5060938;28;19992;-65
2022/10/28 10:02:02;;;;;;;;;;;;;;;14.44;100.00;98907.44;5060693;28;20390;-64
2022/10/28 10:04:30;;;;;;;;;;;;;;;14.57;100.00;98899.69;5057789;28;19929;-64
2022/10/28 10:06:57;;;;;;;;;;;;;;;14.69;100.00;98909.41;5057447;28;19925;-64
2022/10/28 10:09:25;;;;;;;;;;;;;;;14.86;100.00;98912.66;5059246;28;20019;-64
2022/10/28 10:11:55;;;;;;;;;;;;;;;14.91;100.00;98910.00;5060779;28;19960;-64
2022/10/28 10:14:25;;;;;;;;;;;;;;;14.90;100.00;98911.88;5058944;28;19925;-65
2022/10/28 10:16:53;;;;;;;;;;;;;;;14.89;100.00;98904.84;5058942;28;19988;-65
2022/10/28 10:19:20;;;;;;;;;;;;;;;14.89;100.00;98907.56;5060801;28;19957;-64
2022/10/28 10:21:47;;;;;;;;;;;;;;;14.84;100.00;98907.56;5066708;28;19951;-64
2022/10/28 10:24:28;;;;;;;;;;;;;;;14.89;100.00;98895.97;5061458;28;19975;-64
2022/10/28 10:26:56;;;;;;;;;;;;;;;14.96;100.00;98899.22;5056784;28;19925;-64
2022/10/28 10:29:23;;;;;;;;;;;;;;;15.05;100.00;98898.44;5058764;28;19998;-65
2022/10/28 10:32:03;;;;;;;;;;;;;;;15.09;100.00;98899.53;5060175;28;19991;-65
2022/10/28 10:34:29;;;;;;;;;;;;;;;15.13;100.00;98895.19;5056576;28;19992;-65
2022/10/28 10:36:56;;;;;;;;;;;;;;;15.21;100.00;98890.38;5056408;28;19951;-64
2022/10/28 10:39:25;;;;;;;;;;;;;;;15.34;100.00;98897.91;5061539;28;19961;-65
2022/10/28 10:41:53;;;;;;;;;;;;;;;15.37;100.00;98895.50;5063616;28;19936;-65
2022/10/28 10:44:34;;;;;;;;;;;;;;;15.52;100.00;98892.81;5058412;28;19925;-64
2022/10/28 10:47:18;;;;;;;;;;;;;;;15.69;100.00;98895.19;5056610;28;19931;-64
2022/10/28 10:49:44;;;;;;;;;;;;;;;15.70;100.00;98883.34;5050032;28;19929;-64
2022/10/28 10:52:17;;;;;;;;;;;;;;;15.66;100.00;98876.91;5055318;28;20383;-64
2022/10/28 10:54:46;;;;;;;;;;;;;;;15.68;100.00;98872.06;5056144;28;19993;-65
2022/10/28 10:57:16;;;;;;;;;;;;;;;15.84;100.00;98873.66;5056658;28;19939;-65
2022/10/28 10:59:46;;;;;;;;;;;;;;;15.91;100.00;98867.94;5059447;28;19929;-65
2022/10/28 11:02:21;;;;;;;;;;;;;;;15.81;100.00;98868.81;5058996;28;19968;-64
2022/10/28 11:04:49;;;;;;;;;;;;;;;15.82;100.00;98867.72;5056077;28;19967;-67
2022/10/28 11:07:16;;;;;;;;;;;;;;;15.90;100.00;98867.16;5056605;28;19935;-65
2022/10/28 11:09:42;;;;;;;;;;;;;;;15.56;100.00;98871.53;5059230;28;19921;-64
2022/10/28 11:12:25;;;;;;;;;;;;;;;15.77;100.00;98862.34;5058950;28;19984;-65
2022/10/28 11:14:56;;;;;;;;;;;;;;;15.85;100.00;98856.38;5055734;28;19925;-65
2022/10/28 11:17:24;;;;;;;;;;;;;;;16.02;100.00;98848.81;5057549;28;19935;-65
2022/10/28 11:19:53;;;;;;;;;;;;;;;16.24;100.00;98844.94;5059129;28;19932;-64
2022/10/28 11:22:25;;;;;;;;;;;;;;;16.35;100.00;98841.09;5055864;28;19925;-64
2022/10/28 11:25:01;;;;;;;;;;;;;;;16.45;100.00;98824.88;5055698;28;19936;-65
2022/10/28 11:27:34;;;;;;;;;;;;;;;16.54;100.00;98828.59;5058531;28;19967;-64
2022/10/28 11:30:04;;;;;;;;;;;;;;;16.56;100.00;98821.84;5058362;28;20147;-65
2022/10/28 11:32:38;;;;;;;;;;;;;;;16.61;100.00;98824.53;5055682;28;20016;-65
2022/10/28 11:35:23;;;;;;;;;;;;;;;16.58;100.00;98822.41;5055451;28;20016;-65
2022/10/28 11:37:55;;;;;;;;;;;;;;;16.56;100.00;98819.16;5049634;28;19937;-64
2022/10/28 11:40:29;;;;;;;;;;;;;;;16.69;100.00;98823.94;5057148;28;20484;-65
2022/10/28 11:43:02;;;;;;;;;;;;;;;16.76;100.00;98820.13;5059059;28;19974;-65
2022/10/28 11:45:33;;;;;;;;;;;;;;;16.66;100.00;98824.50;5056041;28;19997;-65
2022/10/28 11:48:05;;;;;;;;;;;;;;;16.80;100.00;98819.28;5055571;28;19925;-64
2022/10/28 11:50:37;;;;;;;;;;;;;;;16.85;100.00;98821.13;5058675;28;19959;-64
2022/10/28 11:53:19;;;;;;;;;;;;;;;16.89;100.00;98817.59;5050111;28;19933;-64
2022/10/28 11:55:50;;;;;;;;;;;;;;;16.99;100.00;98814.81;5048853;28;19984;-65
2022/10/28 11:58:20;;;;;;;;;;;;;;;17.02;100.00;98808.84;5056445;28;19932;-64
2022/10/28 12:00:54;;;;;;;;;;;;;;;17.13;100.00;98809.56;5058646;28;19960;-64
2022/10/28 12:03:31;;;;;;;;;;;;;;;17.17;100.00;98813.31;5056471;28;20343;-64
2022/10/28 12:06:02;;;;;;;;;;;;;;;17.12;100.00;98806.06;5054791;28;20308;-65
2022/10/28 12:08:35;;;;;;;;;;;;;;;17.24;100.00;98809.19;5057599;28;19964;-65
2022/10/28 12:11:09;;;;;;;;;;;;;;;17.40;100.00;98815.25;5058134;28;19984;-64
2022/10/28 12:13:40;;;;;;;;;;;;;;;17.50;100.00;98804.34;5046821;28;19932;-65
2022/10/28 12:16:13;;;;;;;;;;;;;;;17.53;100.00;98805.66;5054124;28;19929;-65
2022/10/28 12:18:45;;;;;;;;;;;;;;;17.65;100.00;98795.31;5047166;28;19932;-65
2022/10/28 12:21:14;;;;;;;;;;;;;;;17.45;100.00;98795.50;5055129;28;19993;-66
2022/10/28 12:23:42;;;;;;;;;;;;;;;17.36;100.00;98797.22;5055258;28;19988;-65
2022/10/28 12:26:10;;;;;;;;;;;;;;;17.13;100.00;98799.59;5058280;28;19932;-65
2022/10/28 12:28:40;;;;;;;;;;;;;;;17.30;100.00;98793.75;5054690;28;20003;-64
2022/10/28 12:31:16;;;;;;;;;;;;;;;17.49;100.00;98783.81;5054841;28;19968;-65
2022/10/28 12:33:46;;;;;;;;;;;;;;;17.60;100.00;98788.06;5048035;28;20012;-65
2022/10/28 12:36:18;;;;;;;;;;;;;;;17.79;100.00;98782.72;5055265;28;19921;-64
2022/10/28 12:38:46;;;;;;;;;;;;;;;17.80;100.00;98774.31;5058219;28;20041;-65
2022/10/28 12:41:13;;;;;;;;;;;;;;;17.78;100.00;98768.41;5057409;28;20021;-64
2022/10/28 12:43:42;;;;;;;;;;;;;;;17.80;100.00;98770.81;5054669;28;19951;-65